createdAt,value
2018-04-12T00:01:06.363Z,98.90
2018-04-12T00:05:40.334Z,99.90
2018-04-12T00:10:13.592Z,99.80
2018-04-12T00:14:47.601Z,99.60
2018-04-12T00:19:21.545Z,99.80
2018-04-12T00:23:55.527Z,99.90
2018-04-12T00:28:28.745Z,99.90
2018-04-12T00:33:01.986Z,99.90
2018-04-12T00:37:35.926Z,99.90
2018-04-12T00:42:09.127Z,99.90
2018-04-12T00:46:43.366Z,99.90
2018-04-12T00:51:16.695Z,99.90
2018-04-12T00:55:49.927Z,99.90
2018-04-12T01:00:23.154Z,99.90
2018-04-12T01:04:57.185Z,99.90
2018-04-12T01:09:30.472Z,99.90
2018-04-12T01:14:03.638Z,99.90
2018-04-12T01:18:36.813Z,99.90
2018-04-12T01:23:10.058Z,99.90
2018-04-12T01:27:43.209Z,99.90
2018-04-12T01:32:16.531Z,99.90
2018-04-12T01:36:50.567Z,99.90
2018-04-12T01:41:24.528Z,99.90
2018-04-12T01:45:57.773Z,99.90
2018-04-12T01:50:30.955Z,99.90
2018-04-12T01:55:04.430Z,99.90
2018-04-12T01:59:37.671Z,99.90
2018-04-12T02:04:10.904Z,99.90
2018-04-12T02:08:44.971Z,99.90
2018-04-12T02:13:18.225Z,99.90
2018-04-12T02:17:51.494Z,99.90
2018-04-12T02:22:24.752Z,99.90
2018-04-12T02:26:58.838Z,99.90
2018-04-12T02:31:32.019Z,99.90
2018-04-12T02:36:05.974Z,99.90
2018-04-12T02:40:39.203Z,99.90
2018-04-12T02:45:12.425Z,99.90
2018-04-12T02:49:45.609Z,99.90
2018-04-12T02:54:18.802Z,99.90
2018-04-12T02:58:53.425Z,99.90
2018-04-12T03:03:27.445Z,99.90
2018-04-12T03:08:01.591Z,99.90
2018-04-12T03:12:34.798Z,99.90
2018-04-12T03:17:08.064Z,99.90
2018-04-12T03:21:42.080Z,99.90
2018-04-12T03:26:16.131Z,99.90
2018-04-12T03:30:50.155Z,99.90
2018-04-12T03:35:24.133Z,99.90
2018-04-12T03:39:57.384Z,99.90
2018-04-12T03:44:31.550Z,99.90
2018-04-12T03:49:04.905Z,99.90
2018-04-12T03:53:38.066Z,99.90
2018-04-12T03:58:11.338Z,99.90
2018-04-12T04:02:45.995Z,99.90
2018-04-12T04:07:19.278Z,99.90
2018-04-12T04:11:52.490Z,99.90
2018-04-12T04:16:38.535Z,99.90
2018-04-12T04:21:14.596Z,99.90
2018-04-12T04:25:47.971Z,99.90
2018-04-12T04:30:22.320Z,99.90
2018-04-12T04:34:56.380Z,99.90
2018-04-12T04:39:29.748Z,99.90
2018-04-12T04:44:03.253Z,99.90
2018-04-12T04:48:37.351Z,99.90
2018-04-12T04:53:11.452Z,99.90
2018-04-12T04:57:44.689Z,99.90
2018-04-12T05:02:17.934Z,99.90
2018-04-12T05:06:51.974Z,99.90
2018-04-12T05:11:25.245Z,99.90
2018-04-12T05:15:58.488Z,99.90
2018-04-12T05:20:31.816Z,99.90
2018-04-12T05:25:05.009Z,99.90
2018-04-12T05:29:38.286Z,99.90
2018-04-12T05:34:11.557Z,99.90
2018-04-12T05:38:44.793Z,99.90
2018-04-12T05:43:18.011Z,99.90
2018-04-12T05:47:51.234Z,99.90
2018-04-12T05:52:24.482Z,99.90
2018-04-12T05:56:57.760Z,99.90
2018-04-12T06:01:30.990Z,99.90
2018-04-12T06:06:04.239Z,99.90
2018-04-12T06:10:37.433Z,99.90
2018-04-12T06:15:10.680Z,99.90
2018-04-12T06:19:44.672Z,99.90
2018-04-12T06:24:17.943Z,99.90
2018-04-12T06:28:51.156Z,99.90
2018-04-12T06:33:24.416Z,99.90
2018-04-12T06:37:58.651Z,99.90
2018-04-12T06:42:32.811Z,99.30
2018-04-12T06:47:06.010Z,99.30
2018-04-12T06:51:39.294Z,98.90
2018-04-12T06:56:13.300Z,97.90
2018-04-12T07:00:46.525Z,97.80
2018-04-12T07:05:20.491Z,97.70
2018-04-12T07:09:53.725Z,98.00
2018-04-12T07:14:26.951Z,97.70
2018-04-12T07:19:00.193Z,97.30
2018-04-12T07:23:33.414Z,97.00
2018-04-12T07:28:06.671Z,96.80
2018-04-12T07:32:39.933Z,95.70
2018-04-12T07:37:13.179Z,94.90
2018-04-12T07:41:46.514Z,94.90
2018-04-12T07:46:20.537Z,92.60
2018-04-12T07:50:54.537Z,92.10
2018-04-12T07:55:27.709Z,92.00
2018-04-12T08:00:01.067Z,90.10
2018-04-12T08:04:34.290Z,88.00
2018-04-12T08:09:08.346Z,83.90
2018-04-12T08:13:41.631Z,83.80
2018-04-12T08:18:15.613Z,78.40
2018-04-12T08:22:48.932Z,78.40
2018-04-12T08:27:23.816Z,79.80
2018-04-12T08:31:57.049Z,79.10
2018-04-12T08:36:30.309Z,81.60
2018-04-12T08:41:04.391Z,73.20
2018-04-12T08:45:37.642Z,73.10
2018-04-12T08:50:11.068Z,79.80
2018-04-12T08:54:45.155Z,82.80
2018-04-12T08:59:18.435Z,82.70
2018-04-12T09:03:51.773Z,81.30
2018-04-12T09:08:25.034Z,76.00
2018-04-12T09:12:59.469Z,76.30
2018-04-12T09:17:32.770Z,77.00
2018-04-12T09:22:06.725Z,80.00
2018-04-12T09:26:41.176Z,80.00
2018-04-12T09:31:15.371Z,80.40
2018-04-12T09:35:49.398Z,79.60
2018-04-12T09:40:23.411Z,82.50
2018-04-12T09:44:57.481Z,85.20
2018-04-12T09:49:30.708Z,85.20
2018-04-12T09:54:04.003Z,86.30
2018-04-12T09:58:37.359Z,86.90
2018-04-12T10:03:12.353Z,87.80
2018-04-12T10:07:51.206Z,87.70
2018-04-12T10:12:24.597Z,88.50
2018-04-12T10:16:57.915Z,85.20
2018-04-12T10:21:31.149Z,84.70
2018-04-12T10:26:04.416Z,84.70
2018-04-12T10:30:37.637Z,84.30
2018-04-12T10:35:10.877Z,83.10
2018-04-12T10:39:44.133Z,82.00
2018-04-12T10:44:17.477Z,78.90
2018-04-12T10:48:50.719Z,76.00
2018-04-12T10:53:24.044Z,66.70
2018-04-12T10:57:57.498Z,61.40
2018-04-12T11:02:30.678Z,64.20
2018-04-12T11:07:04.296Z,69.60
2018-04-12T11:11:37.581Z,72.90
2018-04-12T11:16:11.589Z,82.40
2018-04-12T11:20:44.826Z,82.30
2018-04-12T11:25:19.180Z,84.00
2018-04-12T11:29:52.766Z,84.00
2018-04-12T11:34:26.050Z,84.70
2018-04-12T11:38:59.245Z,85.00
2018-04-12T11:43:32.446Z,87.00
2018-04-12T11:48:08.095Z,87.70
2018-04-12T11:52:42.810Z,87.70
2018-04-12T11:57:16.216Z,86.20
2018-04-12T12:01:55.098Z,86.10
2018-04-12T12:06:28.366Z,86.10
2018-04-12T12:11:02.070Z,86.30
2018-04-12T12:15:35.282Z,87.00
2018-04-12T12:20:09.254Z,81.00
2018-04-12T12:24:42.552Z,80.90
2018-04-12T12:29:15.917Z,70.10
2018-04-12T12:33:49.514Z,62.00
2018-04-12T12:38:23.564Z,54.70
2018-04-12T12:42:56.914Z,54.60
2018-04-12T12:47:30.304Z,52.50
2018-04-12T12:52:03.596Z,52.60
2018-04-12T12:56:36.874Z,50.60
2018-04-12T13:01:10.216Z,47.60
2018-04-12T13:05:43.574Z,44.20
2018-04-12T13:10:16.829Z,41.90
2018-04-12T13:14:50.043Z,45.00
2018-04-12T13:19:24.027Z,56.70
2018-04-12T13:23:57.240Z,56.60
2018-04-12T13:28:31.888Z,54.10
2018-04-12T13:33:05.100Z,54.00
2018-04-12T13:37:39.095Z,48.50
2018-04-12T13:42:13.009Z,48.70
2018-04-12T13:46:46.262Z,50.50
2018-04-12T13:51:19.438Z,47.90
2018-04-12T13:55:52.648Z,48.00
2018-04-12T14:00:25.879Z,51.50
2018-04-12T14:05:00.578Z,57.40
2018-04-12T14:09:33.783Z,57.40
2018-04-12T14:14:07.087Z,58.60
2018-04-12T14:18:40.281Z,57.40
2018-04-12T14:23:13.967Z,56.40
2018-04-12T14:27:47.933Z,55.50
2018-04-12T14:32:21.300Z,55.50
2018-04-12T14:36:55.276Z,58.30
2018-04-12T14:41:28.917Z,58.30
2018-04-12T14:46:02.254Z,59.00
2018-04-12T14:50:36.263Z,66.00
2018-04-12T14:55:10.929Z,67.30
2018-04-12T14:59:45.149Z,66.40
2018-04-12T15:04:19.202Z,67.50
2018-04-12T15:08:52.413Z,67.40
2018-04-12T15:13:25.789Z,68.30
2018-04-12T15:17:59.800Z,66.80
2018-04-12T15:22:33.812Z,67.70
2018-04-12T15:27:07.023Z,67.60
2018-04-12T15:31:40.358Z,68.40
2018-04-12T15:36:14.367Z,66.60
2018-04-12T15:40:47.530Z,66.60
2018-04-12T15:45:20.999Z,64.60
2018-04-12T15:49:54.365Z,60.60
2018-04-12T15:54:27.553Z,61.00
2018-04-12T15:59:00.774Z,63.20
2018-04-12T16:03:34.006Z,62.90
2018-04-12T16:08:07.241Z,63.60
2018-04-12T16:12:41.266Z,61.80
2018-04-12T16:17:15.216Z,63.20
2018-04-12T16:21:48.497Z,63.00
2018-04-12T16:26:22.460Z,61.60
2018-04-12T16:30:55.698Z,61.50
2018-04-12T16:35:28.976Z,57.80
2018-04-12T16:40:02.182Z,56.30
2018-04-12T16:44:35.671Z,54.90
2018-04-12T16:49:09.081Z,53.30
2018-04-12T16:53:43.071Z,51.00
2018-04-12T16:58:16.331Z,51.00
2018-04-12T17:02:49.561Z,52.20
2018-04-12T17:07:22.790Z,53.30
2018-04-12T17:11:56.347Z,54.50
2018-04-12T17:16:30.324Z,57.10
2018-04-12T17:21:04.274Z,57.00
2018-04-12T17:25:38.230Z,55.70
2018-04-12T17:30:11.423Z,55.40
2018-04-12T17:34:45.373Z,57.50
2018-04-12T17:39:18.579Z,57.40
2018-04-12T17:43:51.852Z,57.20
2018-04-12T17:48:25.814Z,58.90
2018-04-12T17:52:59.039Z,58.80
2018-04-12T17:57:32.255Z,60.50
2018-04-12T18:02:05.481Z,62.20
2018-04-12T18:06:39.297Z,64.40
2018-04-12T18:11:12.712Z,67.00
2018-04-12T18:15:45.942Z,70.10
2018-04-12T18:20:19.918Z,76.20
2018-04-12T18:24:53.164Z,76.20
2018-04-12T18:29:26.357Z,77.50
2018-04-12T18:34:01.061Z,82.40
2018-04-12T18:38:34.275Z,82.30
2018-04-12T18:43:07.483Z,82.30
2018-04-12T18:47:40.714Z,86.40
2018-04-12T18:52:13.958Z,88.40
2018-04-12T18:56:47.926Z,90.20
2018-04-12T19:01:21.115Z,90.10
2018-04-12T19:05:55.009Z,90.50
2018-04-12T19:10:28.287Z,91.60
2018-04-12T19:15:01.516Z,92.00
2018-04-12T19:19:35.519Z,92.30
2018-04-12T19:24:08.769Z,92.30
2018-04-12T19:28:42.063Z,92.90
2018-04-12T19:33:16.083Z,93.40
2018-04-12T19:37:50.096Z,93.40
2018-04-12T19:42:24.110Z,93.80
2018-04-12T19:46:57.472Z,93.50
2018-04-12T19:51:30.722Z,94.40
2018-04-12T19:56:03.932Z,94.60
2018-04-12T20:00:37.172Z,94.90
2018-04-12T20:05:11.144Z,95.20
2018-04-12T20:09:44.411Z,95.10
2018-04-12T20:14:18.434Z,95.20
2018-04-12T20:18:51.878Z,95.20
2018-04-12T20:23:25.432Z,95.40
2018-04-12T20:27:58.807Z,96.80
2018-04-12T20:32:32.177Z,97.60
2018-04-12T20:37:06.171Z,96.50
2018-04-12T20:41:39.393Z,96.40
2018-04-12T20:46:14.183Z,97.20
2018-04-12T20:50:47.621Z,97.20
2018-04-12T20:55:20.895Z,97.30
2018-04-12T20:59:54.119Z,97.60
2018-04-12T21:04:27.332Z,97.90
2018-04-12T21:09:00.531Z,97.30
2018-04-12T21:13:33.741Z,96.90
2018-04-12T21:18:06.953Z,97.10
2018-04-12T21:22:40.638Z,97.00
2018-04-12T21:27:14.607Z,98.20
2018-04-12T21:31:47.799Z,98.10
2018-04-12T21:36:21.027Z,97.90
2018-04-12T21:40:54.273Z,97.80
2018-04-12T21:45:28.258Z,97.70
2018-04-12T21:50:01.498Z,97.60
2018-04-12T21:54:35.542Z,99.20
2018-04-12T21:59:08.943Z,99.20
2018-04-12T22:03:42.871Z,98.80
2018-04-12T22:08:16.857Z,99.80
2018-04-12T22:12:50.085Z,99.70
2018-04-12T22:17:23.343Z,99.90
2018-04-12T22:21:56.559Z,99.70
2018-04-12T22:26:29.794Z,99.80
2018-04-12T22:31:03.042Z,99.90
2018-04-12T22:35:36.286Z,99.90
2018-04-12T22:40:09.442Z,99.90
2018-04-12T22:44:43.439Z,99.90
2018-04-12T22:49:16.626Z,99.90
2018-04-12T22:53:49.861Z,99.90
2018-04-12T22:58:23.135Z,99.90
2018-04-12T23:02:56.376Z,99.60
2018-04-12T23:07:29.614Z,99.70
2018-04-12T23:12:03.585Z,99.90
2018-04-12T23:16:36.836Z,99.90
2018-04-12T23:21:10.148Z,99.90
2018-04-12T23:25:44.094Z,99.90
2018-04-12T23:30:17.253Z,99.90
2018-04-12T23:34:50.498Z,99.90
2018-04-12T23:39:23.732Z,99.90
2018-04-12T23:43:56.994Z,99.90
2018-04-12T23:48:30.206Z,99.90
2018-04-12T23:53:04.222Z,99.90
2018-04-12T23:57:38.233Z,99.90
